Time;durP1;ratioP1;P1;durP2;ratioP2;P2;SDS_P1;SDS_P2;PMS_P1;PMS_P2;Temp;Humidity;BMP_temperature;BMP_pressure;BME280_temperature;BME280_humidity;BME280_pressure;Samples;Min_cycle;Max_cycle;Signal;HPM_P1;HPM_P2
2022/04/09 09:54:56;;;;;;;;;3.00;2.40;;;;;20.92;37.45;97912.78;5117295;27;14204;-76
2022/04/09 09:57:28;;;;;;;;;4.20;4.20;;;;;21.23;37.55;97903.56;5064813;28;8879;-75
2022/04/09 09:59:58;;;;;;;;;4.40;4.20;;;;;21.51;36.77;97896.31;5091506;28;8885;-77
2022/04/09 10:02:35;;;;;;;;;7.60;5.60;;;;;21.83;35.75;97899.28;5070406;28;8856;-77
2022/04/09 10:05:04;;;;;;;;;3.40;3.00;;;;;22.01;35.74;97905.06;5077240;28;8877;-77
2022/04/09 10:07:35;;;;;;;;;5.40;5.20;;;;;22.30;35.40;97902.06;5065732;28;8881;-76
2022/04/09 10:10:07;;;;;;;;;7.40;6.20;;;;;22.45;35.04;97889.44;5083144;28;8861;-76
2022/04/09 10:12:39;;;;;;;;;8.00;6.60;;;;;22.78;34.56;97897.50;5065749;28;9638;-77
2022/04/09 10:15:09;;;;;;;;;4.00;4.00;;;;;23.02;34.65;97899.19;5061056;28;8853;-76
2022/04/09 10:17:39;;;;;;;;;4.00;4.00;;;;;23.24;33.94;97900.22;5065266;28;8966;-79
2022/04/09 10:20:09;;;;;;;;;6.00;5.20;;;;;23.48;33.81;97882.31;5062965;28;9007;-78
2022/04/09 10:22:43;;;;;;;;;6.60;6.00;;;;;23.71;33.26;97890.25;5078753;28;9363;-76
2022/04/09 10:25:16;;;;;;;;;6.00;5.20;;;;;23.63;32.21;97884.69;5045537;28;8857;-78
2022/04/09 10:27:52;;;;;;;;;5.00;4.60;;;;;23.54;32.31;97894.25;5062617;28;8868;-77
2022/04/09 10:30:22;;;;;;;;;6.00;6.00;;;;;23.71;32.35;97899.06;5077734;28;8857;-77
2022/04/09 10:32:53;;;;;;;;;4.80;4.80;;;;;23.70;31.83;97892.03;5051939;28;9711;-77
2022/04/09 10:35:26;;;;;;;;;5.20;5.20;;;;;23.67;31.39;97884.31;5078897;28;8849;-75
2022/04/09 10:38:22;;;;;;;;;3.60;3.60;;;;;23.32;30.65;97871.19;5065181;28;8872;-76
2022/04/09 10:41:27;;;;;;;;;5.40;5.40;;;;;23.47;29.65;97885.91;5082422;28;8951;-76
2022/04/09 10:44:00;;;;;;;;;7.80;5.00;;;;;23.41;30.11;97874.94;5097093;28;8856;-78
2022/04/09 10:46:35;;;;;;;;;6.00;6.00;;;;;23.35;29.30;97887.75;5063412;28;8858;-76
2022/04/09 10:49:22;;;;;;;;;8.80;6.60;;;;;23.60;29.56;97887.59;5083596;28;8899;-78
2022/04/09 10:52:06;;;;;;;;;7.00;6.60;;;;;23.66;29.09;97873.78;5077730;28;8961;-76
2022/04/09 10:54:35;;;;;;;;;6.40;6.00;;;;;23.38;29.20;97880.50;5072725;28;8922;-79
2022/04/09 10:57:09;;;;;;;;;6.00;6.00;;;;;23.51;29.14;97879.38;5046349;28;9546;-77
2022/04/09 10:59:38;;;;;;;;;6.00;5.00;;;;;23.64;29.50;97889.03;5078239;28;8954;-76
2022/04/09 11:02:07;;;;;;;;;6.60;5.20;;;;;23.73;28.97;97889.13;5080400;28;8864;-76
2022/04/09 11:04:43;;;;;;;;;6.80;6.40;;;;;23.80;28.98;97886.88;5066951;28;8881;-77
2022/04/09 11:07:17;;;;;;;;;6.40;6.20;;;;;23.57;29.08;97885.19;5057312;28;8992;-78
2022/04/09 11:09:51;;;;;;;;;5.20;5.20;;;;;23.85;29.54;97897.13;5055206;28;8983;-79
2022/04/09 11:12:24;;;;;;;;;9.00;8.60;;;;;23.89;29.19;97896.78;5060378;28;8846;-74
2022/04/09 11:14:55;;;;;;;;;7.20;7.20;;;;;23.54;29.87;97900.44;5067159;28;8930;-71
2022/04/09 11:17:29;;;;;;;;;8.20;6.40;;;;;23.41;29.75;97902.38;5034747;28;8843;-70
2022/04/09 11:20:03;;;;;;;;;8.00;8.00;;;;;23.81;29.90;97895.69;5084508;28;8880;-70
2022/04/09 11:22:33;;;;;;;;;4.60;4.60;;;;;23.94;29.64;97883.91;5058620;28;8887;-72
2022/04/09 11:25:02;;;;;;;;;6.00;6.00;;;;;24.06;29.74;97886.53;5048742;28;9668;-73
2022/04/09 11:27:33;;;;;;;;;7.00;7.00;;;;;24.17;29.68;97888.31;5047650;28;8849;-71
2022/04/09 11:30:03;;;;;;;;;5.60;5.60;;;;;24.15;30.12;97891.09;5051642;28;8870;-74
2022/04/09 11:32:35;;;;;;;;;6.00;6.00;;;;;24.29;30.86;97892.59;5049318;28;8861;-73
2022/04/09 11:35:08;;;;;;;;;5.40;5.40;;;;;24.45;30.30;97886.84;5063557;28;8852;-72
2022/04/09 11:37:40;;;;;;;;;6.20;5.00;;;;;24.37;30.49;97890.16;5034195;28;8855;-76
2022/04/09 11:40:11;;;;;;;;;7.80;7.80;;;;;24.66;30.44;97885.06;5064805;28;8904;-74
2022/04/09 11:42:45;;;;;;;;;6.20;6.00;;;;;24.60;29.73;97879.41;5052117;28;9094;-78
2022/04/09 11:45:19;;;;;;;;;9.00;8.40;;;;;24.69;29.67;97873.31;5066260;28;9009;-75
2022/04/09 11:47:48;;;;;;;;;8.20;7.20;;;;;24.92;29.41;97881.16;5066919;28;8870;-74
2022/04/09 11:50:18;;;;;;;;;6.80;5.80;;;;;24.90;29.02;97887.44;5062161;28;8896;-75
2022/04/09 11:52:46;;;;;;;;;9.60;7.20;;;;;25.10;29.21;97883.06;5058558;28;8869;-77
2022/04/09 11:55:16;;;;;;;;;6.00;6.00;;;;;25.13;29.30;97881.94;5049012;28;9563;-78
2022/04/09 11:57:51;;;;;;;;;7.40;5.20;;;;;25.29;28.83;97879.66;5052927;28;8857;-78
2022/04/09 12:00:23;;;;;;;;;6.20;6.20;;;;;25.42;28.73;97881.22;5032707;28;8960;-78
2022/04/09 12:02:52;;;;;;;;;9.20;9.20;;;;;25.34;28.29;97868.56;5082200;28;8865;-76
2022/04/09 12:05:21;;;;;;;;;9.60;8.60;;;;;25.50;27.97;97865.41;5015501;28;8892;-78
2022/04/09 12:07:50;;;;;;;;;8.80;7.00;;;;;25.34;26.99;97855.22;5049254;28;8837;-77
2022/04/09 12:10:26;;;;;;;;;5.00;5.00;;;;;25.39;26.28;97854.84;5049376;28;8853;-78
2022/04/09 12:12:58;;;;;;;;;6.80;6.80;;;;;25.22;25.45;97842.94;5064882;28;8861;-75
2022/04/09 12:15:29;;;;;;;;;4.40;4.40;;;;;25.33;25.68;97850.00;5053589;28;8905;-76
2022/04/09 12:17:58;;;;;;;;;4.40;4.40;;;;;25.20;25.71;97845.75;5084377;28;8854;-77
2022/04/09 12:20:31;;;;;;;;;6.80;6.80;;;;;25.15;25.79;97852.47;5050652;28;8854;-77
2022/04/09 12:23:01;;;;;;;;;7.80;7.80;;;;;25.08;26.14;97857.47;5068435;28;8873;-77
2022/04/09 12:25:40;;;;;;;;;5.40;5.00;;;;;24.85;26.07;97862.97;5084770;28;8850;-78
2022/04/09 12:28:22;;;;;;;;;6.60;5.60;;;;;24.32;26.56;97857.72;5084728;28;8876;-79
2022/04/09 12:30:53;;;;;;;;;6.00;5.00;;;;;24.52;26.51;97856.91;5098483;28;8855;-78
2022/04/09 12:33:23;;;;;;;;;7.60;6.60;;;;;24.25;26.97;97856.53;5092582;28;8860;-78
2022/04/09 12:35:53;;;;;;;;;6.40;6.40;;;;;24.30;27.27;97873.81;5081559;28;8869;-78
2022/04/09 12:38:33;;;;;;;;;8.80;8.80;;;;;24.47;27.28;97860.91;5047592;28;8899;-77
2022/04/09 12:41:04;;;;;;;;;5.60;5.60;;;;;24.27;27.48;97871.44;5049315;28;8926;-76
2022/04/09 12:43:36;;;;;;;;;8.60;8.60;;;;;23.98;27.62;97865.84;5064959;28;8983;-79
2022/04/09 12:46:07;;;;;;;;;8.20;8.20;;;;;23.83;27.53;97869.78;5081066;28;8906;-79
2022/04/09 12:48:40;;;;;;;;;7.60;6.00;;;;;23.89;26.87;97867.47;5069011;28;8978;-76
2022/04/09 12:51:09;;;;;;;;;8.40;6.40;;;;;23.67;26.88;97840.91;5051420;28;8846;-76
2022/04/09 12:53:38;;;;;;;;;5.40;5.00;;;;;23.63;27.07;97858.06;5067446;28;8859;-77
2022/04/09 12:56:08;;;;;;;;;5.40;5.40;;;;;23.32;27.33;97863.19;5084136;28;8933;-77
2022/04/09 12:58:39;;;;;;;;;6.20;5.00;;;;;23.27;27.65;97858.25;5067696;28;8878;-77
2022/04/09 13:01:09;;;;;;;;;8.60;6.20;;;;;23.40;27.71;97862.59;5063836;28;8971;-76
2022/04/09 13:03:39;;;;;;;;;6.00;6.00;;;;;23.43;27.46;97857.03;5047797;28;9610;-78
2022/04/09 13:06:07;;;;;;;;;7.00;7.00;;;;;23.49;27.57;97861.84;5055256;28;8850;-75
2022/04/09 13:08:36;;;;;;;;;6.00;5.80;;;;;23.25;27.73;97859.34;5050783;28;8838;-76
2022/04/09 13:11:05;;;;;;;;;6.00;5.00;;;;;23.23;27.68;97856.81;5069121;28;8917;-77
2022/04/09 13:13:34;;;;;;;;;7.80;6.00;;;;;23.04;27.92;97862.72;5067350;28;8996;-77
2022/04/09 13:16:05;;;;;;;;;7.20;7.20;;;;;22.97;27.53;97854.38;5068717;28;8838;-77
2022/04/09 13:18:34;;;;;;;;;6.40;5.80;;;;;22.82;27.97;97882.16;5067276;28;8850;-79
2022/04/09 13:21:03;;;;;;;;;8.00;6.00;;;;;21.26;35.04;97977.56;5050984;28;8846;-77
2022/04/09 13:23:32;;;;;;;;;8.20;5.40;;;;;19.39;42.53;97978.22;5074846;28;8858;-76
2022/04/09 13:26:01;;;;;;;;;4.80;4.60;;;;;18.60;46.00;97970.66;5067642;28;8866;-76
2022/04/09 13:28:30;;;;;;;;;6.00;6.00;;;;;17.58;49.25;97972.84;5101253;28;8866;-76
2022/04/09 13:30:58;;;;;;;;;6.40;6.00;;;;;16.43;53.73;98025.22;5069192;28;8864;-76
2022/04/09 13:33:29;;;;;;;;;7.60;7.00;;;;;16.83;53.35;98035.59;5051266;28;8906;-77
2022/04/09 13:35:57;;;;;;;;;4.00;4.00;;;;;17.12;52.52;98047.28;5068200;28;9020;-76
2022/04/09 13:38:25;;;;;;;;;3.40;3.40;;;;;16.75;53.93;98044.69;5054818;28;8876;-76
2022/04/09 13:40:54;;;;;;;;;2.20;2.00;;;;;16.73;53.28;98030.75;5048098;28;8865;-77
2022/04/09 13:43:23;;;;;;;;;2.80;2.60;;;;;16.29;54.58;98036.41;5050389;28;9049;-74
2022/04/09 13:45:52;;;;;;;;;4.00;4.00;;;;;16.19;55.41;98029.91;5047909;28;8869;-77
2022/04/09 13:48:21;;;;;;;;;5.80;4.60;;;;;15.96;56.27;98055.50;5048904;28;9736;-77
2022/04/09 13:50:51;;;;;;;;;4.20;4.20;;;;;16.06;56.53;98081.38;5080750;28;8933;-75
2022/04/09 13:53:20;;;;;;;;;4.40;4.20;;;;;15.96;56.60;98097.56;4980294;28;8885;-76
2022/04/09 13:55:49;;;;;;;;;4.80;4.80;;;;;16.11;56.12;98087.28;5066026;28;8830;-76
2022/04/09 13:58:18;;;;;;;;;6.40;6.40;;;;;16.02;56.57;98108.72;5066129;28;8862;-78
2022/04/09 14:00:47;;;;;;;;;5.00;3.00;;;;;16.10;56.54;98103.97;5067517;28;8842;-76
2022/04/09 14:03:16;;;;;;;;;4.00;3.20;;;;;16.27;56.20;98095.28;5046241;28;8918;-78
2022/04/09 14:05:45;;;;;;;;;6.40;5.60;;;;;16.09;56.18;98099.66;5047312;28;9605;-76
2022/04/09 14:08:16;;;;;;;;;3.00;3.00;;;;;15.93;56.92;98123.13;5025791;28;8857;-75
2022/04/09 14:10:48;;;;;;;;;4.00;3.00;;;;;16.02;56.11;98122.72;5046903;28;9015;-81
2022/04/09 14:13:17;;;;;;;;;4.40;4.40;;;;;16.16;55.89;98135.22;5066453;28;8866;-79
2022/04/09 14:15:46;;;;;;;;;4.00;4.00;;;;;16.12;56.42;98125.78;5030648;28;8988;-79
2022/04/09 14:18:16;;;;;;;;;5.40;4.80;;;;;16.01;56.25;98133.31;5071918;28;8894;-79
2022/04/09 14:20:45;;;;;;;;;7.40;5.00;;;;;15.15;58.78;98137.88;5003124;28;8872;-79
2022/04/09 14:23:15;;;;;;;;;6.60;5.60;;;;;15.12;58.92;98143.25;5067105;28;8860;-80
2022/04/09 14:25:44;;;;;;;;;4.40;4.40;;;;;15.01;59.60;98164.72;5066372;28;8885;-76
2022/04/09 14:28:14;;;;;;;;;5.20;5.20;;;;;15.06;59.72;98164.50;5071301;28;8893;-76
2022/04/09 14:30:43;;;;;;;;;3.60;3.60;;;;;14.76;60.99;98173.56;5083217;28;8878;-75
2022/04/09 14:33:12;;;;;;;;;3.00;3.00;;;;;14.92;60.04;98188.72;5060035;28;8849;-75
2022/04/09 14:35:41;;;;;;;;;3.40;3.00;;;;;13.53;62.87;98213.88;5049112;28;8966;-78
2022/04/09 14:38:09;;;;;;;;;3.00;3.00;;;;;13.21;63.20;98231.47;5065339;28;9527;-78
2022/04/09 14:40:39;;;;;;;;;2.00;2.00;;;;;12.91;63.03;98252.50;5095553;28;8873;-77
2022/04/09 14:43:09;;;;;;;;;1.40;1.00;;;;;12.15;62.63;98289.56;5069617;28;8918;-79
2022/04/09 14:45:37;;;;;;;;;2.20;2.20;;;;;12.28;61.90;98275.25;5086704;28;8892;-79
2022/04/09 14:48:07;;;;;;;;;3.60;2.60;;;;;12.56;60.94;98264.88;5039964;28;9035;-76
2022/04/09 14:50:36;;;;;;;;;3.40;3.40;;;;;12.62;60.77;98248.16;5065933;28;8862;-78
2022/04/09 14:53:11;;;;;;;;;4.00;4.00;;;;;12.83;61.15;98255.34;5065640;28;8881;-76
2022/04/09 14:55:42;;;;;;;;;3.80;3.80;;;;;12.94;61.04;98259.41;5051523;28;8979;-77
2022/04/09 14:58:11;;;;;;;;;3.60;3.60;;;;;12.80;61.67;98257.22;5051080;28;8870;-74
2022/04/09 15:00:39;;;;;;;;;8.00;6.80;;;;;12.88;61.38;98253.44;5035909;28;8877;-78
2022/04/09 15:03:08;;;;;;;;;6.80;6.20;;;;;12.94;60.60;98265.47;5064747;28;8854;-77
2022/04/09 15:05:37;;;;;;;;;13.00;13.00;;;;;12.50;61.76;98288.59;5045241;28;8864;-75
2022/04/09 15:08:06;;;;;;;;;6.20;4.80;;;;;11.82;63.11;98294.78;5049221;28;8875;-76
2022/04/09 15:10:34;;;;;;;;;11.20;11.00;;;;;11.65;63.28;98306.50;5062196;28;8823;-76
2022/04/09 15:13:05;;;;;;;;;11.00;11.00;;;;;11.63;63.38;98295.22;5042626;28;8891;-80
2022/04/09 15:15:34;;;;;;;;;12.80;12.80;;;;;11.73;63.69;98313.28;5064485;28;8812;-76
2022/04/09 15:18:03;;;;;;;;;12.20;10.80;;;;;10.86;66.09;98330.06;5073326;28;8862;-77
2022/04/09 15:20:32;;;;;;;;;21.40;20.80;;;;;10.72;66.70;98335.59;5063597;28;8890;-77
2022/04/09 15:23:01;;;;;;;;;19.80;18.40;;;;;10.25;68.16;98343.41;5017812;28;8858;-79
2022/04/09 15:25:31;;;;;;;;;16.20;16.20;;;;;10.08;69.05;98354.13;5044958;28;8858;-78
2022/04/09 15:28:00;;;;;;;;;14.20;13.20;;;;;9.99;68.73;98351.69;5016869;28;8979;-77
2022/04/09 15:30:30;;;;;;;;;19.40;17.80;;;;;10.03;68.38;98352.50;5027478;28;8878;-77
2022/04/09 15:32:58;;;;;;;;;14.40;13.80;;;;;10.01;68.23;98352.53;5029337;28;8982;-76
2022/04/09 15:35:27;;;;;;;;;17.80;17.40;;;;;10.06;67.67;98384.56;5026011;28;8849;-75
2022/04/09 15:37:56;;;;;;;;;15.80;15.80;;;;;9.88;68.15;98392.69;5019886;28;8892;-79
2022/04/09 15:40:24;;;;;;;;;20.00;18.40;;;;;9.81;68.68;98407.56;5027388;28;8883;-75
2022/04/09 15:42:53;;;;;;;;;21.80;19.00;;;;;9.79;68.93;98418.84;5020778;28;8858;-76
2022/04/09 15:45:22;;;;;;;;;17.40;16.00;;;;;9.83;68.45;98443.97;5025115;28;8927;-76
2022/04/09 15:47:52;;;;;;;;;11.60;11.60;;;;;9.51;69.08;98479.16;5029641;28;9036;-77
2022/04/09 15:50:22;;;;;;;;;18.20;16.20;;;;;9.37;70.35;98448.09;5024806;28;8891;-75
2022/04/09 15:52:51;;;;;;;;;19.25;19.25;;;;;9.32;70.69;98447.31;5025648;28;8880;-74
2022/04/09 15:55:24;;;;;;;;;17.80;17.60;;;;;9.34;69.26;98456.81;5046813;28;8871;-76
2022/04/09 15:57:53;;;;;;;;;17.20;17.00;;;;;9.33;69.31;98438.59;5049680;28;9609;-77
2022/04/09 16:00:21;;;;;;;;;20.80;19.60;;;;;9.21;70.64;98442.25;5012950;28;8970;-77
2022/04/09 16:02:50;;;;;;;;;10.00;8.60;;;;;8.89;71.13;98468.63;5048797;28;8858;-76
2022/04/09 16:05:20;;;;;;;;;16.40;14.00;;;;;8.79;72.43;98452.28;5033014;28;9611;-77
2022/04/09 16:07:48;;;;;;;;;12.40;12.40;;;;;8.71;72.77;98475.72;5033284;28;9558;-76
2022/04/09 16:10:17;;;;;;;;;16.40;15.20;;;;;8.64;73.72;98473.22;5055274;28;8879;-79
2022/04/09 16:12:46;;;;;;;;;11.40;10.00;;;;;8.67;74.46;98468.84;5050522;28;8902;-78
2022/04/09 16:15:15;;;;;;;;;13.80;12.20;;;;;8.54;76.17;98475.03;5043350;28;8859;-80
2022/04/09 16:17:44;;;;;;;;;16.40;16.40;;;;;8.45;76.23;98494.19;5056591;28;9632;-79
2022/04/09 16:20:13;;;;;;;;;13.00;13.00;;;;;8.43;77.28;98490.75;5036993;28;8879;-78
2022/04/09 16:22:43;;;;;;;;;14.40;13.00;;;;;8.26;77.90;98509.03;5050714;28;8870;-77
2022/04/09 16:25:12;;;;;;;;;16.00;13.80;;;;;8.11;79.42;98510.03;5051358;28;8889;-77
2022/04/09 16:27:40;;;;;;;;;13.80;13.80;;;;;8.13;80.22;98526.44;5070775;28;8850;-77
2022/04/09 16:30:10;;;;;;;;;13.80;13.80;;;;;8.06;82.10;98550.72;5037407;28;9009;-77
2022/04/09 16:32:39;;;;;;;;;9.60;9.00;;;;;7.87;81.58;98549.13;5066171;28;8869;-77
2022/04/09 16:35:08;;;;;;;;;16.80;15.20;;;;;7.65;82.26;98550.97;5076668;28;8987;-76
2022/04/09 16:37:58;;;;;;;;;15.00;15.00;;;;;7.54;81.45;98562.25;5038314;28;8846;-78
2022/04/09 16:40:29;;;;;;;;;19.20;16.00;;;;;7.56;83.00;98583.88;5050854;28;9098;-76
2022/04/09 16:42:57;;;;;;;;;20.25;18.25;;;;;7.64;83.67;98589.03;5084828;28;8862;-76
2022/04/09 16:45:26;;;;;;;;;17.40;15.00;;;;;7.65;82.63;98593.34;5068812;28;8855;-77
2022/04/09 16:47:55;;;;;;;;;18.00;15.00;;;;;7.63;82.14;98581.25;5066866;28;8878;-76
2022/04/09 16:50:23;;;;;;;;;10.25;7.00;;;;;7.60;82.78;98587.31;5049428;28;8852;-76
2022/04/09 16:52:52;;;;;;;;;13.75;11.25;;;;;7.53;81.70;98596.84;5049213;28;8844;-77
2022/04/09 16:55:22;;;;;;;;;9.40;9.40;;;;;7.46;80.67;98586.50;5065605;28;8963;-76
2022/04/09 16:57:51;;;;;;;;;16.75;15.25;;;;;7.49;80.59;98581.31;5034217;28;8882;-81
2022/04/09 17:00:20;;;;;;;;;11.40;11.40;;;;;7.56;79.54;98588.19;5045871;28;8861;-77
2022/04/09 17:02:48;;;;;;;;;13.20;12.20;;;;;7.58;79.16;98579.53;5059738;28;8914;-79
2022/04/09 17:05:24;;;;;;;;;13.60;12.80;;;;;7.60;78.61;98600.28;5048889;28;8859;-77
2022/04/09 17:07:53;;;;;;;;;14.60;12.80;;;;;7.65;78.81;98592.47;5048034;28;8974;-77
2022/04/09 17:10:23;;;;;;;;;14.50;14.00;;;;;7.73;78.68;98590.69;5028769;28;8884;-79
2022/04/09 17:12:52;;;;;;;;;14.80;14.80;;;;;7.77;78.37;98585.50;5029508;28;8869;-76
2022/04/09 17:15:21;;;;;;;;;15.50;15.50;;;;;7.55;82.35;98594.25;5027767;28;8872;-76
2022/04/09 17:17:49;;;;;;;;;14.80;14.20;;;;;7.48;83.13;98606.38;5042494;28;8972;-76
2022/04/09 17:20:18;;;;;;;;;14.00;14.00;;;;;7.37;84.51;98589.97;5025668;28;8852;-77
2022/04/09 17:22:47;;;;;;;;;13.60;13.60;;;;;7.33;85.75;98596.03;5047508;28;8982;-79
2022/04/09 17:25:15;;;;;;;;;18.80;14.20;;;;;7.31;87.88;98602.97;5045893;28;9026;-80
2022/04/09 17:27:46;;;;;;;;;17.80;15.80;;;;;7.20;89.41;98615.94;5064791;28;8828;-74
2022/04/09 17:30:15;;;;;;;;;20.00;15.80;;;;;7.24;90.27;98625.47;5049556;28;8860;-78
2022/04/09 17:32:43;;;;;;;;;18.20;16.80;;;;;7.20;90.04;98631.50;5049926;28;8864;-77
2022/04/09 17:35:12;;;;;;;;;15.50;15.50;;;;;7.16;89.76;98634.97;5001072;28;8960;-76
2022/04/09 17:37:41;;;;;;;;;22.50;21.50;;;;;7.18;89.72;98639.31;5064775;28;8977;-76
2022/04/09 17:40:10;;;;;;;;;21.50;20.75;;;;;7.09;88.44;98638.44;5081089;28;8864;-76
2022/04/09 17:42:40;;;;;;;;;25.00;21.75;;;;;7.13;88.47;98653.16;5016222;28;8910;-79
2022/04/09 17:45:10;;;;;;;;;22.25;15.50;;;;;6.98;86.13;98656.59;5065016;28;8871;-75
2022/04/09 17:47:39;;;;;;;;;15.00;15.00;;;;;6.86;84.10;98665.22;5047477;28;8911;-77
2022/04/09 17:50:08;;;;;;;;;20.50;19.00;;;;;6.93;84.87;98684.25;5065769;28;8846;-76
2022/04/09 17:52:37;;;;;;;;;22.25;21.00;;;;;6.92;82.32;98688.56;5074595;28;8862;-78
2022/04/09 17:55:06;;;;;;;;;18.20;15.40;;;;;6.90;81.89;98692.00;5081559;28;8997;-77
2022/04/09 17:57:35;;;;;;;;;21.00;18.50;;;;;6.80;81.39;98698.91;5012416;28;8895;-78
2022/04/09 18:00:05;;;;;;;;;14.60;14.20;;;;;6.73;80.54;98697.19;5044318;28;8857;-77
2022/04/09 18:02:36;;;;;;;;;10.60;9.60;;;;;6.64;81.12;98701.50;5074245;28;9305;-77
2022/04/09 18:05:07;;;;;;;;;19.25;16.75;;;;;6.71;80.90;98699.78;5027324;28;8858;-76
2022/04/09 18:07:35;;;;;;;;;14.20;14.20;;;;;6.80;80.53;98699.78;5053443;28;8966;-78
2022/04/09 18:10:05;;;;;;;;;15.20;14.60;;;;;6.70;80.31;98710.16;5049685;28;9700;-76
2022/04/09 18:12:35;;;;;;;;;25.00;17.50;;;;;6.66;81.68;98708.41;5012746;28;9584;-76
2022/04/09 18:15:04;;;;;;;;;19.60;17.60;;;;;6.66;81.66;98698.06;5000348;28;8860;-77
2022/04/09 18:17:34;;;;;;;;;13.40;13.40;;;;;6.74;82.23;98688.56;5035560;28;8876;-76
2022/04/09 18:20:04;;;;;;;;;15.50;12.75;;;;;6.76;81.20;98692.88;5044413;28;8847;-75
2022/04/09 18:22:33;;;;;;;;;19.75;19.00;;;;;6.87;80.46;98687.69;5048204;28;9640;-75
2022/04/09 18:25:02;;;;;;;;;17.50;17.25;;;;;6.92;79.89;98708.41;5068571;28;8917;-77
2022/04/09 18:27:32;;;;;;;;;20.00;18.25;;;;;6.93;81.00;98710.16;5085965;28;8884;-77
2022/04/09 18:30:00;;;;;;;;;17.60;17.60;;;;;6.93;80.73;98717.94;5002579;28;9000;-78
2022/04/09 18:32:29;;;;;;;;;15.00;15.00;;;;;6.90;79.56;98720.50;4992558;28;8878;-79
2022/04/09 18:34:59;;;;;;;;;18.25;17.00;;;;;6.92;79.78;98722.28;5025513;28;8884;-76
2022/04/09 18:37:29;;;;;;;;;18.25;18.00;;;;;6.98;80.39;98729.19;5009207;28;8901;-76
2022/04/09 18:39:58;;;;;;;;;16.00;15.00;;;;;6.95;78.97;98734.34;4977227;28;8870;-77
2022/04/09 18:42:27;;;;;;;;;15.25;13.75;;;;;6.90;79.41;98736.97;4944692;28;8949;-74
2022/04/09 18:44:55;;;;;;;;;21.50;20.00;;;;;6.91;79.88;98730.88;5010747;28;8860;-76
2022/04/09 18:47:24;;;;;;;;;17.50;14.00;;;;;7.01;78.45;98734.34;5028405;28;8904;-77
2022/04/09 18:49:53;;;;;;;;;18.50;16.75;;;;;6.98;79.29;98739.56;4995686;28;8860;-76
2022/04/09 18:52:29;;;;;;;;;17.50;14.00;;;;;7.02;79.58;98734.34;4994870;28;8860;-75
2022/04/09 18:54:58;;;;;;;;;29.50;25.50;;;;;7.00;80.29;98733.50;4988201;28;8904;-75
2022/04/09 18:57:27;;;;;;;;;18.75;18.75;;;;;7.04;79.90;98726.59;4991145;28;8885;-75
2022/04/09 18:59:56;;;;;;;;;19.00;18.00;;;;;7.12;79.46;98747.31;4992198;28;8951;-76
2022/04/09 19:02:24;;;;;;;;;21.75;19.75;;;;;7.04;79.64;98731.78;4992272;28;8884;-75
2022/04/09 19:04:53;;;;;;;;;22.75;21.00;;;;;7.14;80.13;98746.44;4991405;28;9654;-76
2022/04/09 19:07:22;;;;;;;;;22.75;20.25;;;;;7.23;79.87;98741.28;4995667;28;8968;-75
2022/04/09 19:09:52;;;;;;;;;22.25;17.50;;;;;7.12;79.38;98735.22;5008478;28;8867;-75
2022/04/09 19:12:21;;;;;;;;;18.25;17.25;;;;;7.06;79.99;98724.84;5025441;28;8862;-74
2022/04/09 19:14:49;;;;;;;;;26.50;24.25;;;;;7.15;82.29;98730.03;5025290;28;8862;-76
2022/04/09 19:17:18;;;;;;;;;24.00;22.50;;;;;7.15;80.88;98729.19;5025407;28;8861;-76
2022/04/09 19:19:47;;;;;;;;;16.75;15.25;;;;;6.98;81.35;98729.19;5008195;28;8874;-73
2022/04/09 19:22:16;;;;;;;;;27.00;26.50;;;;;7.10;83.00;98723.13;5026414;28;8939;-76
2022/04/09 19:24:45;;;;;;;;;28.00;26.00;;;;;7.30;82.87;98730.91;4989987;28;8875;-74
2022/04/09 19:27:15;;;;;;;;;29.50;24.00;;;;;7.44;83.21;98738.69;4997316;28;8867;-74
2022/04/09 19:29:43;;;;;;;;;30.25;26.50;;;;;7.40;83.19;98730.88;5041839;28;8895;-75
2022/04/09 19:32:12;;;;;;;;;26.75;23.75;;;;;7.72;82.34;98729.97;5011952;28;8855;-75
2022/04/09 19:34:41;;;;;;;;;28.25;27.75;;;;;7.95;80.62;98726.44;5012384;28;8859;-75
2022/04/09 19:37:09;;;;;;;;;26.00;22.60;;;;;8.03;80.53;98716.03;4960759;28;8854;-76
2022/04/09 19:39:42;;;;;;;;;21.80;17.40;;;;;7.99;79.78;98717.78;5024615;28;8882;-73
2022/04/09 19:42:10;;;;;;;;;23.40;20.80;;;;;7.57;82.27;98735.19;5010664;28;8878;-74
2022/04/09 19:44:40;;;;;;;;;19.40;17.60;;;;;7.79;81.33;98736.03;5020683;28;8848;-75
2022/04/09 19:47:09;;;;;;;;;18.60;18.60;;;;;7.65;82.22;98751.59;5008874;28;8965;-75
2022/04/09 19:49:39;;;;;;;;;19.60;18.60;;;;;7.87;80.40;98759.38;5028301;28;8881;-76
2022/04/09 19:52:08;;;;;;;;;16.00;15.60;;;;;8.19;79.87;98752.34;5023452;28;8893;-77
2022/04/09 19:54:37;;;;;;;;;19.25;19.25;;;;;8.53;79.21;98754.81;5042005;28;8882;-81
2022/04/09 19:57:06;;;;;;;;;19.40;19.40;;;;;8.65;77.22;98755.63;5046610;28;8862;-76
2022/04/09 19:59:34;;;;;;;;;27.80;23.40;;;;;8.38;78.39;98747.91;5029457;28;8854;-75
2022/04/09 20:02:05;;;;;;;;;24.00;19.60;;;;;8.52;78.63;98747.88;5030201;28;8987;-77
2022/04/09 20:04:34;;;;;;;;;20.20;20.20;;;;;8.63;78.11;98747.81;5029219;28;8873;-74
2022/04/09 20:07:03;;;;;;;;;25.40;24.00;;;;;8.74;78.64;98755.56;5013229;28;8878;-75
2022/04/09 20:09:36;;;;;;;;;23.60;23.40;;;;;8.78;78.26;98752.06;5044847;28;9005;-75
2022/04/09 20:12:06;;;;;;;;;26.00;24.50;;;;;8.28;80.57;98740.16;5010805;28;8827;-75
2022/04/09 20:14:35;;;;;;;;;32.00;28.50;;;;;8.13;81.28;98739.38;5029526;28;8862;-75
2022/04/09 20:17:05;;;;;;;;;26.00;24.00;;;;;8.05;80.96;98751.50;5030728;28;8992;-75
2022/04/09 20:19:34;;;;;;;;;26.00;24.00;;;;;8.10;81.78;98747.16;5064351;28;8860;-77
2022/04/09 20:22:04;;;;;;;;;27.50;27.50;;;;;8.15;81.16;98744.56;5046313;28;8847;-76
2022/04/09 20:24:33;;;;;;;;;31.25;29.00;;;;;7.94;82.78;98750.66;5049791;28;8970;-73
2022/04/09 20:27:01;;;;;;;;;28.50;27.50;;;;;8.13;80.33;98759.31;5046171;28;8978;-77
2022/04/09 20:29:30;;;;;;;;;26.00;22.00;;;;;8.35;79.80;98760.06;5031831;28;8861;-75
2022/04/09 20:31:58;;;;;;;;;62.25;48.75;;;;;8.39;79.46;98759.16;5050582;28;8847;-77
2022/04/09 20:34:29;;;;;;;;;22.50;22.00;;;;;7.89;82.03;98757.63;5048405;28;8864;-75
2022/04/09 20:36:58;;;;;;;;;26.50;23.25;;;;;8.04;80.43;98751.53;5036486;28;8865;-76
2022/04/09 20:39:27;;;;;;;;;27.20;22.40;;;;;7.99;81.17;98748.94;5044508;28;9611;-76
2022/04/09 20:41:55;;;;;;;;;30.25;26.50;;;;;8.17;81.50;98740.22;5045297;28;8868;-74
2022/04/09 20:44:24;;;;;;;;;23.60;23.60;;;;;8.06;81.26;98755.84;5045468;28;8967;-75
2022/04/09 20:46:52;;;;;;;;;27.00;24.25;;;;;7.98;82.23;98749.81;5045087;28;8904;-74
2022/04/09 20:49:21;;;;;;;;;29.00;24.00;;;;;7.88;83.18;98749.00;5065063;28;8866;-79
2022/04/09 20:51:51;;;;;;;;;26.00;25.25;;;;;7.81;83.91;98757.66;5028896;28;8862;-77
2022/04/09 20:54:21;;;;;;;;;27.75;26.50;;;;;8.12;83.32;98754.97;5039204;28;8866;-77
2022/04/09 20:56:52;;;;;;;;;28.25;27.00;;;;;7.84;82.49;98752.44;4980016;28;8849;-77
2022/04/09 20:59:22;;;;;;;;;32.75;32.75;;;;;7.26;86.51;98757.69;5018708;28;8951;-74
2022/04/09 21:01:51;;;;;;;;;32.25;27.75;;;;;7.05;88.33;98753.38;5062141;28;8881;-75
2022/04/09 21:04:20;;;;;;;;;32.75;29.00;;;;;6.88;90.14;98741.28;5028574;28;8850;-75
2022/04/09 21:06:52;;;;;;;;;26.25;23.00;;;;;6.58;90.35;98750.72;5024954;28;8854;-77
2022/04/09 21:09:21;;;;;;;;;35.75;31.00;;;;;6.63;90.66;98755.88;5044463;28;9608;-79
2022/04/09 21:11:50;;;;;;;;;35.50;30.25;;;;;6.51;91.81;98763.63;5008048;28;8878;-78
2022/04/09 21:14:18;;;;;;;;;31.75;31.75;;;;;6.38;91.87;98753.22;5008461;28;8890;-76
2022/04/09 21:16:47;;;;;;;;;30.25;27.25;;;;;6.10;93.00;98751.41;5022836;28;8887;-78
2022/04/09 21:19:19;;;;;;;;;36.00;31.50;;;;;6.22;95.74;98751.47;5024703;28;8879;-77
2022/04/09 21:21:47;;;;;;;;;31.25;28.25;;;;;6.21;95.28;98758.34;4960778;28;8879;-75
2022/04/09 21:24:17;;;;;;;;;31.25;29.50;;;;;6.49;95.13;98755.84;5007761;28;8890;-74
2022/04/09 21:26:46;;;;;;;;;34.50;31.25;;;;;6.78;92.60;98755.06;4990999;28;8913;-74
2022/04/09 21:29:16;;;;;;;;;27.75;24.50;;;;;7.15;90.67;98745.59;5007735;28;9596;-75
2022/04/09 21:31:45;;;;;;;;;30.00;26.75;;;;;7.45;88.52;98748.16;5007475;28;8890;-77
2022/04/09 21:34:13;;;;;;;;;24.25;23.25;;;;;7.59;86.53;98747.28;5024083;28;8867;-77
2022/04/09 21:36:42;;;;;;;;;27.25;23.50;;;;;7.80;85.53;98746.38;5007299;28;8868;-77
2022/04/09 21:39:11;;;;;;;;;30.75;26.25;;;;;7.97;83.94;98743.75;5006789;28;8873;-78
2022/04/09 21:41:41;;;;;;;;;25.00;25.00;;;;;8.13;82.54;98743.72;4992729;28;8983;-76
2022/04/09 21:44:10;;;;;;;;;27.00;24.50;;;;;7.45;82.20;98751.66;5041560;28;8863;-76